Airfield :
LOGIN :

Register | Disclaimer

   EN    FR    IT 

 










Legend :    VFR   Marginal VFR   IFR   Intensive IFR   Very Intensive IFR
Visi :
Ceiling :
>= 8 km
>= 3000ft
5 to 8 km
1000 to 3000 ft
1500m to 5 km
500 to 1000 ft
800 to 1500m
200 to 500 ft
< 800m
< 200 ft
Symbols :   Thunderstorms  Fog  Heavy snow  Heavy precipitations  Wind > 20 kt
SIGMETs :     Misc.  Thunderstorms  Icing  Turbulence  Mountain Waves  Volcanic Ashes







- Airport Elevation : 97 ft
- IATA code : EBJ


EKEB - Esbjerg

CURRENT METAR :
  • 211120Z AUTO 09016KT 9999NDV BKN150/// 06/01 Q1025

EXPIRED METARs :
  • 211050Z AUTO 09017KT 9999NDV SCT027/// BKN150/// 05/01 Q1025
  • 211020Z AUTO 09017KT 9999NDV BKN026/// BKN140/// 05/01 Q1025
  • 210950Z AUTO 09017KT 9999NDV SCT025/// BKN150/// 05/01 Q1025
  • 210920Z AUTO 10017KT 9999NDV FEW026/// BKN140/// BKN210/// 05/01 Q1024
  • 210850Z AUTO 09017G27KT 9999NDV FEW026/// FEW140/// BKN210/// 05/01 Q1024

TAF TAF EKEB
Valid from the 21 at 12:00 until the 21 at 21:00 UTC


211059Z 2112/2121 09015KT 9999 BKN020
TEMPO 2112/2114 09017G27KT
No reported NOTAMs for that airfield.



MET'MAP, your aeronautical weather chart ! - Copyright ORBIFLY December 2007 - Disclaimer

ORBIFLY MET'MAP TEAM :

Programming & Development : Alexandra Zaïnal
Concept & Development : Baudouin d'Aumeries
Co-Development & Prog : Marc-Olivier Méhu
Technical & hardware support : Manuel Goepfert

Contact : metmap@orbifly.com




SOURCES & CREDITS :

   NOAA